OCN8HK LGMK-EDDM
Flight info
| Callsign | OCN8HK |
|---|---|
| Flight time | 2h 19m |
| Altitude | 38000 |
| Route | VARIX UL995 KEA UN132 ROPOX UM749 SKP UL617 MAKED DCT SKJ DCT LONTA UL608 DOLEV DCT PODET DCT EXHEK DCT REDBU Q112 NAPSA NAPSA4A |
| Aircraft | A320/M-SDE3FGHIRWY/LB1 |
Departure
| Time | 2026-05-04 16:22 |
|---|---|
| Airport | Mykonos Island National Airport (LGMK) |
Arrival
| Time | 2026-05-04 18:41 |
|---|---|
| Airport | Munich Airport (EDDM) |
| Time | Latitude | Longitude | Altitude | Speed | Heading |
|---|---|---|---|---|---|
| 2026-05-04 15:41 | 37.43394 | 25.34703 | 412 ft | 0 kts | 248° |
| 2026-05-04 16:12 | 37.43413 | 25.34745 | 410 ft | 3 kts | 204° |
| 2026-05-04 16:13 | 37.43447 | 25.34745 | 410 ft | 2 kts | 163° |
| 2026-05-04 16:13 | 37.43459 | 25.34740 | 408 ft | 0 kts | 163° |
| 2026-05-04 16:16 | 37.43262 | 25.34934 | 413 ft | 19 kts | 161° |
| 2026-05-04 16:17 | 37.43039 | 25.35031 | 413 ft | 15 kts | 161° |
| 2026-05-04 16:18 | 37.42806 | 25.35133 | 415 ft | 9 kts | 161° |
| 2026-05-04 16:18 | 37.42772 | 25.35184 | 410 ft | 7 kts | 129° |
| 2026-05-04 16:19 | 37.42747 | 25.35152 | 412 ft | 0 kts | 339° |
| 2026-05-04 16:21 | 37.43973 | 25.34620 | 668 ft | 146 kts | 341° |
| 2026-05-04 16:22 | 37.45958 | 25.33593 | 2506 ft | 149 kts | 329° |
| 2026-05-04 16:22 | 37.47055 | 25.29695 | 4135 ft | 179 kts | 286° |
| 2026-05-04 16:23 | 37.48300 | 25.25149 | 5475 ft | 196 kts | 323° |
| 2026-05-04 16:24 | 37.53438 | 25.20355 | 7871 ft | 249 kts | 326° |
| 2026-05-04 16:25 | 37.56284 | 25.17685 | 9472 ft | 260 kts | 326° |
| 2026-05-04 16:26 | 37.62757 | 25.11620 | 11356 ft | 324 kts | 326° |
| 2026-05-04 16:26 | 37.68300 | 25.06397 | 13490 ft | 338 kts | 326° |
| 2026-05-04 16:27 | 37.72112 | 25.02796 | 14786 ft | 346 kts | 326° |
| 2026-05-04 16:28 | 37.77996 | 24.97245 | 16676 ft | 358 kts | 326° |
| 2026-05-04 16:28 | 37.84063 | 24.91509 | 18467 ft | 369 kts | 326° |
| 2026-05-04 16:29 | 37.92429 | 24.83580 | 20501 ft | 382 kts | 325° |
| 2026-05-04 16:30 | 37.98890 | 24.77444 | 21974 ft | 392 kts | 326° |
| 2026-05-04 16:31 | 38.03285 | 24.73250 | 22891 ft | 399 kts | 326° |
| 2026-05-04 16:31 | 38.10014 | 24.66830 | 24142 ft | 407 kts | 325° |
| 2026-05-04 16:32 | 38.16866 | 24.60280 | 25256 ft | 415 kts | 326° |
| 2026-05-04 16:33 | 38.21468 | 24.55868 | 25963 ft | 419 kts | 325° |
| 2026-05-04 16:33 | 38.26181 | 24.51342 | 26685 ft | 424 kts | 325° |
| 2026-05-04 16:34 | 38.30883 | 24.46825 | 27380 ft | 428 kts | 325° |
| 2026-05-04 16:34 | 38.33300 | 24.44503 | 27730 ft | 431 kts | 325° |
| 2026-05-04 16:35 | 38.40520 | 24.37540 | 28687 ft | 437 kts | 324° |
| 2026-05-04 16:35 | 38.47836 | 24.30459 | 29598 ft | 443 kts | 324° |
| 2026-05-04 16:36 | 38.50299 | 24.28076 | 29889 ft | 445 kts | 325° |
| 2026-05-04 16:36 | 38.55215 | 24.23313 | 30668 ft | 442 kts | 325° |
| 2026-05-04 16:37 | 38.59274 | 24.19364 | 31329 ft | 439 kts | 324° |
| 2026-05-04 16:37 | 38.61696 | 24.17003 | 31709 ft | 437 kts | 324° |
| 2026-05-04 16:37 | 38.66893 | 24.13008 | 32440 ft | 432 kts | 335° |
| 2026-05-04 16:38 | 38.72240 | 24.09633 | 33142 ft | 430 kts | 335° |
| 2026-05-04 16:39 | 38.80259 | 24.04573 | 34253 ft | 426 kts | 334° |
| 2026-05-04 16:39 | 38.85562 | 24.01212 | 34843 ft | 424 kts | 334° |
| 2026-05-04 16:40 | 38.90853 | 23.97857 | 35351 ft | 424 kts | 334° |
| 2026-05-04 16:40 | 38.96141 | 23.94494 | 35835 ft | 424 kts | 334° |
| 2026-05-04 16:41 | 39.01466 | 23.91110 | 36293 ft | 424 kts | 334° |
| 2026-05-04 16:41 | 39.09390 | 23.86061 | 36944 ft | 424 kts | 334° |
| 2026-05-04 16:42 | 39.17310 | 23.80986 | 37589 ft | 424 kts | 334° |
| 2026-05-04 16:43 | 39.22591 | 23.77604 | 37977 ft | 423 kts | 334° |
| 2026-05-04 16:43 | 39.27881 | 23.74217 | 38109 ft | 425 kts | 334° |
| 2026-05-04 16:43 | 39.30531 | 23.72519 | 38104 ft | 425 kts | 334° |
| 2026-05-04 16:45 | 39.46381 | 23.62295 | 38095 ft | 425 kts | 334° |
| 2026-05-04 16:46 | 39.59623 | 23.53729 | 38104 ft | 425 kts | 334° |
| 2026-05-04 16:47 | 39.70246 | 23.46813 | 38099 ft | 426 kts | 334° |
| 2026-05-04 16:48 | 39.80813 | 23.39920 | 38102 ft | 426 kts | 334° |
| 2026-05-04 16:49 | 39.91359 | 23.33023 | 38100 ft | 426 kts | 334° |
| 2026-05-04 16:50 | 40.01940 | 23.26067 | 38102 ft | 426 kts | 334° |
| 2026-05-04 16:51 | 40.09882 | 23.20838 | 38097 ft | 426 kts | 334° |
| 2026-05-04 16:52 | 40.20440 | 23.13860 | 38098 ft | 425 kts | 334° |
| 2026-05-04 16:53 | 40.28342 | 23.08622 | 38102 ft | 424 kts | 334° |
| 2026-05-04 16:54 | 40.38856 | 23.01638 | 38103 ft | 423 kts | 334° |
| 2026-05-04 16:55 | 40.54492 | 22.91191 | 38102 ft | 421 kts | 335° |
| 2026-05-04 16:56 | 40.67533 | 22.82432 | 38095 ft | 421 kts | 334° |
| 2026-05-04 16:57 | 40.75352 | 22.77172 | 38093 ft | 421 kts | 335° |
| 2026-05-04 16:58 | 40.85774 | 22.70121 | 38091 ft | 421 kts | 335° |
| 2026-05-04 17:00 | 41.01380 | 22.59539 | 38090 ft | 420 kts | 335° |
| 2026-05-04 17:01 | 41.14208 | 22.50286 | 38102 ft | 421 kts | 324° |
| 2026-05-04 17:02 | 41.23285 | 22.40438 | 38095 ft | 421 kts | 324° |
| 2026-05-04 17:03 | 41.30083 | 22.33061 | 38095 ft | 420 kts | 324° |
| 2026-05-04 17:03 | 41.36856 | 22.25664 | 38092 ft | 419 kts | 324° |
| 2026-05-04 17:04 | 41.45868 | 22.15804 | 38098 ft | 419 kts | 324° |
| 2026-05-04 17:05 | 41.54844 | 22.05887 | 38088 ft | 420 kts | 321° |
| 2026-05-04 17:06 | 41.61135 | 21.97716 | 38080 ft | 421 kts | 319° |
| 2026-05-04 17:07 | 41.66623 | 21.90333 | 38085 ft | 420 kts | 319° |
| 2026-05-04 17:07 | 41.71466 | 21.83879 | 38084 ft | 420 kts | 319° |
| 2026-05-04 17:08 | 41.77693 | 21.75616 | 38087 ft | 420 kts | 319° |
| 2026-05-04 17:09 | 41.81825 | 21.70096 | 38084 ft | 420 kts | 319° |
| 2026-05-04 17:09 | 41.85964 | 21.64562 | 38078 ft | 420 kts | 319° |
| 2026-05-04 17:10 | 41.96292 | 21.50718 | 38077 ft | 420 kts | 319° |
| 2026-05-04 17:11 | 42.00419 | 21.45167 | 38076 ft | 419 kts | 319° |
| 2026-05-04 17:12 | 42.06602 | 21.36833 | 38094 ft | 420 kts | 319° |
| 2026-05-04 17:13 | 42.16190 | 21.23835 | 38129 ft | 419 kts | 319° |
| 2026-05-04 17:14 | 42.24398 | 21.12679 | 38143 ft | 419 kts | 319° |
| 2026-05-04 17:15 | 42.30383 | 21.04526 | 38138 ft | 419 kts | 318° |
| 2026-05-04 17:16 | 42.38565 | 20.93299 | 38139 ft | 419 kts | 318° |
| 2026-05-04 17:17 | 42.46779 | 20.82020 | 38135 ft | 419 kts | 318° |
| 2026-05-04 17:18 | 42.54946 | 20.70740 | 38121 ft | 419 kts | 318° |
| 2026-05-04 17:19 | 42.63109 | 20.59443 | 38114 ft | 419 kts | 318° |
| 2026-05-04 17:20 | 42.71245 | 20.48116 | 38111 ft | 419 kts | 317° |
| 2026-05-04 17:20 | 42.77356 | 20.39617 | 38111 ft | 419 kts | 317° |
| 2026-05-04 17:21 | 42.85524 | 20.28236 | 38111 ft | 420 kts | 319° |
| 2026-05-04 17:22 | 42.89762 | 20.22770 | 38116 ft | 419 kts | 320° |
| 2026-05-04 17:23 | 42.98269 | 20.11909 | 38124 ft | 419 kts | 319° |
| 2026-05-04 17:24 | 43.04589 | 20.03674 | 38102 ft | 419 kts | 319° |
| 2026-05-04 17:25 | 43.13041 | 19.92637 | 38097 ft | 419 kts | 319° |
| 2026-05-04 17:26 | 43.21433 | 19.81626 | 38087 ft | 419 kts | 319° |
| 2026-05-04 17:27 | 43.31989 | 19.67736 | 38091 ft | 425 kts | 317° |
| 2026-05-04 17:28 | 43.40547 | 19.56420 | 38093 ft | 425 kts | 317° |
| 2026-05-04 17:29 | 43.53315 | 19.39434 | 38084 ft | 425 kts | 317° |
| 2026-05-04 17:31 | 43.63976 | 19.25178 | 38081 ft | 426 kts | 316° |
| 2026-05-04 17:32 | 43.74596 | 19.10916 | 38083 ft | 426 kts | 316° |
| 2026-05-04 17:33 | 43.83068 | 18.99457 | 38085 ft | 426 kts | 316° |
| 2026-05-04 17:34 | 43.91540 | 18.87969 | 38085 ft | 425 kts | 316° |
| 2026-05-04 17:35 | 44.02091 | 18.73591 | 38085 ft | 425 kts | 316° |
| 2026-05-04 17:36 | 44.06312 | 18.67825 | 38082 ft | 425 kts | 316° |
| 2026-05-04 17:36 | 44.10518 | 18.62054 | 38079 ft | 424 kts | 316° |
| 2026-05-04 17:37 | 44.14717 | 18.56275 | 38080 ft | 424 kts | 316° |
| 2026-05-04 17:37 | 44.18921 | 18.50504 | 38076 ft | 424 kts | 316° |
| 2026-05-04 17:38 | 44.23109 | 18.44724 | 38072 ft | 424 kts | 315° |
| 2026-05-04 17:38 | 44.27293 | 18.38938 | 38070 ft | 424 kts | 315° |
| 2026-05-04 17:39 | 44.33571 | 18.30255 | 38064 ft | 423 kts | 315° |
| 2026-05-04 17:39 | 44.37776 | 18.24413 | 38064 ft | 423 kts | 315° |
| 2026-05-04 17:40 | 44.41946 | 18.18603 | 38063 ft | 423 kts | 315° |
| 2026-05-04 17:40 | 44.46114 | 18.12787 | 38055 ft | 423 kts | 315° |
| 2026-05-04 17:41 | 44.50279 | 18.06957 | 38054 ft | 423 kts | 315° |
| 2026-05-04 17:41 | 44.54438 | 18.01123 | 38052 ft | 423 kts | 315° |
| 2026-05-04 17:42 | 44.58606 | 17.95277 | 38047 ft | 423 kts | 315° |
| 2026-05-04 17:42 | 44.62765 | 17.89423 | 38043 ft | 424 kts | 315° |
| 2026-05-04 17:43 | 44.66922 | 17.83564 | 38046 ft | 424 kts | 315° |
| 2026-05-04 17:43 | 44.71084 | 17.77684 | 38043 ft | 424 kts | 315° |
| 2026-05-04 17:44 | 44.74562 | 17.72752 | 38042 ft | 424 kts | 315° |
| 2026-05-04 17:44 | 44.78716 | 17.66852 | 38033 ft | 424 kts | 315° |
| 2026-05-04 17:45 | 44.82875 | 17.60937 | 38035 ft | 425 kts | 315° |
| 2026-05-04 17:45 | 44.87025 | 17.55018 | 38030 ft | 425 kts | 314° |
| 2026-05-04 17:46 | 44.91182 | 17.49089 | 38031 ft | 425 kts | 314° |
| 2026-05-04 17:46 | 44.95336 | 17.43137 | 38031 ft | 425 kts | 314° |
| 2026-05-04 17:47 | 44.99484 | 17.37178 | 38030 ft | 425 kts | 314° |
| 2026-05-04 17:47 | 45.03630 | 17.31207 | 38032 ft | 426 kts | 314° |
| 2026-05-04 17:48 | 45.07779 | 17.25231 | 38033 ft | 426 kts | 314° |
| 2026-05-04 17:48 | 45.11927 | 17.19243 | 38033 ft | 426 kts | 314° |
| 2026-05-04 17:49 | 45.16074 | 17.13248 | 38033 ft | 426 kts | 314° |
| 2026-05-04 17:49 | 45.20220 | 17.07235 | 38029 ft | 426 kts | 314° |
| 2026-05-04 17:50 | 45.24358 | 17.01218 | 38024 ft | 426 kts | 314° |
| 2026-05-04 17:50 | 45.28497 | 16.95193 | 38030 ft | 426 kts | 314° |
| 2026-05-04 17:51 | 45.32629 | 16.89150 | 38027 ft | 426 kts | 313° |
| 2026-05-04 17:51 | 45.36762 | 16.83099 | 38026 ft | 426 kts | 313° |
| 2026-05-04 17:52 | 45.40897 | 16.77045 | 38026 ft | 427 kts | 313° |
| 2026-05-04 17:52 | 45.45029 | 16.70974 | 38022 ft | 427 kts | 313° |
| 2026-05-04 17:53 | 45.49150 | 16.64897 | 38023 ft | 427 kts | 313° |
| 2026-05-04 17:53 | 45.53270 | 16.58805 | 38021 ft | 427 kts | 313° |
| 2026-05-04 17:54 | 45.57418 | 16.52662 | 38022 ft | 427 kts | 313° |
| 2026-05-04 17:54 | 45.60506 | 16.48083 | 38022 ft | 427 kts | 313° |
| 2026-05-04 17:55 | 45.64472 | 16.42170 | 38014 ft | 427 kts | 313° |
| 2026-05-04 17:55 | 45.68585 | 16.36054 | 38013 ft | 427 kts | 313° |
| 2026-05-04 17:56 | 45.72691 | 16.29938 | 38013 ft | 426 kts | 313° |
| 2026-05-04 17:56 | 45.76798 | 16.23796 | 38014 ft | 426 kts | 313° |
| 2026-05-04 17:57 | 45.80893 | 16.17653 | 38013 ft | 426 kts | 313° |
| 2026-05-04 17:57 | 45.84989 | 16.11501 | 38014 ft | 426 kts | 313° |
| 2026-05-04 17:58 | 45.89079 | 16.05334 | 38011 ft | 426 kts | 312° |
| 2026-05-04 17:58 | 45.93162 | 15.99168 | 38014 ft | 426 kts | 312° |
| 2026-05-04 17:59 | 45.97256 | 15.92984 | 38014 ft | 426 kts | 312° |
| 2026-05-04 18:00 | 46.03356 | 15.83723 | 38027 ft | 426 kts | 312° |
| 2026-05-04 18:00 | 46.07449 | 15.77491 | 38020 ft | 426 kts | 312° |
| 2026-05-04 18:01 | 46.11520 | 15.71280 | 38027 ft | 426 kts | 312° |
| 2026-05-04 18:01 | 46.15589 | 15.65054 | 38032 ft | 427 kts | 313° |
| 2026-05-04 18:02 | 46.20322 | 15.59896 | 38013 ft | 429 kts | 327° |
| 2026-05-04 18:02 | 46.22885 | 15.57676 | 38011 ft | 429 kts | 327° |
| 2026-05-04 18:02 | 46.27997 | 15.53204 | 38008 ft | 430 kts | 327° |
| 2026-05-04 18:03 | 46.33108 | 15.48710 | 38009 ft | 430 kts | 327° |
| 2026-05-04 18:03 | 46.38211 | 15.44212 | 38015 ft | 430 kts | 327° |
| 2026-05-04 18:04 | 46.43316 | 15.39722 | 37580 ft | 428 kts | 327° |
| 2026-05-04 18:04 | 46.48417 | 15.35230 | 36068 ft | 431 kts | 327° |
| 2026-05-04 18:05 | 46.50981 | 15.32961 | 35335 ft | 433 kts | 327° |
| 2026-05-04 18:05 | 46.53557 | 15.30676 | 34985 ft | 434 kts | 327° |
| 2026-05-04 18:05 | 46.56138 | 15.28386 | 35002 ft | 436 kts | 327° |
| 2026-05-04 18:06 | 46.63975 | 15.21427 | 34865 ft | 441 kts | 327° |
| 2026-05-04 18:06 | 46.66587 | 15.19099 | 34370 ft | 440 kts | 327° |
| 2026-05-04 18:06 | 46.69102 | 15.16562 | 33872 ft | 439 kts | 318° |
| 2026-05-04 18:07 | 46.71245 | 15.13423 | 33330 ft | 438 kts | 308° |
| 2026-05-04 18:07 | 46.73169 | 15.09967 | 32794 ft | 440 kts | 308° |
| 2026-05-04 18:07 | 46.75104 | 15.06495 | 32268 ft | 441 kts | 308° |
| 2026-05-04 18:07 | 46.77041 | 15.03023 | 31998 ft | 442 kts | 308° |
| 2026-05-04 18:08 | 46.80927 | 14.96057 | 32012 ft | 444 kts | 308° |
| 2026-05-04 18:08 | 46.84829 | 14.89057 | 32006 ft | 444 kts | 307° |
| 2026-05-04 18:09 | 46.92609 | 14.74985 | 32005 ft | 446 kts | 307° |
| 2026-05-04 18:10 | 46.96500 | 14.67919 | 32004 ft | 446 kts | 307° |
| 2026-05-04 18:10 | 47.00400 | 14.60834 | 32006 ft | 446 kts | 307° |
| 2026-05-04 18:11 | 47.04295 | 14.53737 | 32003 ft | 447 kts | 307° |
| 2026-05-04 18:11 | 47.08189 | 14.46624 | 32000 ft | 448 kts | 307° |
| 2026-05-04 18:12 | 47.12091 | 14.39485 | 32000 ft | 448 kts | 307° |
| 2026-05-04 18:12 | 47.15995 | 14.32322 | 32000 ft | 449 kts | 307° |
| 2026-05-04 18:13 | 47.19925 | 14.25097 | 31865 ft | 451 kts | 307° |
| 2026-05-04 18:13 | 47.23832 | 14.17866 | 30950 ft | 451 kts | 306° |
| 2026-05-04 18:14 | 47.25780 | 14.14246 | 30502 ft | 452 kts | 306° |
| 2026-05-04 18:14 | 47.27735 | 14.10610 | 30066 ft | 453 kts | 306° |
| 2026-05-04 18:14 | 47.29694 | 14.06972 | 29564 ft | 454 kts | 307° |
| 2026-05-04 18:15 | 47.33638 | 13.99653 | 28563 ft | 457 kts | 307° |
| 2026-05-04 18:15 | 47.37602 | 13.92280 | 27596 ft | 460 kts | 307° |
| 2026-05-04 18:15 | 47.39586 | 13.88572 | 27131 ft | 462 kts | 307° |
| 2026-05-04 18:16 | 47.41576 | 13.84845 | 26660 ft | 463 kts | 307° |
| 2026-05-04 18:16 | 47.43572 | 13.81104 | 26211 ft | 465 kts | 307° |
| 2026-05-04 18:16 | 47.44926 | 13.78564 | 25902 ft | 466 kts | 307° |
| 2026-05-04 18:17 | 47.48951 | 13.71014 | 25024 ft | 468 kts | 307° |
| 2026-05-04 18:17 | 47.50961 | 13.67235 | 24588 ft | 470 kts | 307° |
| 2026-05-04 18:17 | 47.55013 | 13.59603 | 23747 ft | 472 kts | 307° |
| 2026-05-04 18:18 | 47.57038 | 13.55773 | 23294 ft | 474 kts | 307° |
| 2026-05-04 18:18 | 47.59074 | 13.51916 | 22800 ft | 475 kts | 307° |
| 2026-05-04 18:18 | 47.61106 | 13.48061 | 22322 ft | 476 kts | 307° |
| 2026-05-04 18:18 | 47.63140 | 13.44197 | 21837 ft | 472 kts | 307° |
| 2026-05-04 18:19 | 47.67000 | 13.36904 | 20917 ft | 445 kts | 307° |
| 2026-05-04 18:19 | 47.68888 | 13.33311 | 20464 ft | 433 kts | 306° |
| 2026-05-04 18:19 | 47.70711 | 13.29827 | 20023 ft | 423 kts | 306° |
| 2026-05-04 18:20 | 47.72494 | 13.26412 | 19580 ft | 414 kts | 306° |
| 2026-05-04 18:20 | 47.74237 | 13.23067 | 19147 ft | 405 kts | 306° |
| 2026-05-04 18:20 | 47.75944 | 13.19787 | 18722 ft | 397 kts | 306° |
| 2026-05-04 18:20 | 47.77619 | 13.16568 | 18307 ft | 391 kts | 306° |
| 2026-05-04 18:21 | 47.79276 | 13.13388 | 17834 ft | 387 kts | 306° |
| 2026-05-04 18:21 | 47.80916 | 13.10237 | 17361 ft | 384 kts | 306° |
| 2026-05-04 18:21 | 47.82542 | 13.07104 | 16891 ft | 381 kts | 306° |
| 2026-05-04 18:21 | 47.84158 | 13.03989 | 16428 ft | 379 kts | 305° |
| 2026-05-04 18:22 | 47.85760 | 13.00895 | 15978 ft | 376 kts | 305° |
| 2026-05-04 18:22 | 47.87357 | 12.97816 | 15519 ft | 374 kts | 305° |
| 2026-05-04 18:22 | 47.88941 | 12.94764 | 15081 ft | 372 kts | 305° |
| 2026-05-04 18:22 | 47.90538 | 12.91681 | 14635 ft | 369 kts | 305° |
| 2026-05-04 18:23 | 47.92085 | 12.88673 | 14216 ft | 367 kts | 304° |
| 2026-05-04 18:23 | 47.93632 | 12.85658 | 13945 ft | 366 kts | 304° |
| 2026-05-04 18:23 | 47.95174 | 12.82639 | 13907 ft | 365 kts | 303° |
| 2026-05-04 18:23 | 47.96538 | 12.79466 | 13915 ft | 364 kts | 297° |
| 2026-05-04 18:24 | 47.97828 | 12.76207 | 13913 ft | 364 kts | 297° |
| 2026-05-04 18:24 | 47.99117 | 12.72971 | 13918 ft | 355 kts | 297° |
| 2026-05-04 18:24 | 48.00357 | 12.69884 | 13921 ft | 338 kts | 297° |
| 2026-05-04 18:24 | 48.01538 | 12.66941 | 13923 ft | 323 kts | 297° |
| 2026-05-04 18:25 | 48.02655 | 12.64138 | 13922 ft | 312 kts | 297° |
| 2026-05-04 18:25 | 48.03767 | 12.61334 | 13922 ft | 309 kts | 296° |
| 2026-05-04 18:25 | 48.04863 | 12.58577 | 13926 ft | 308 kts | 297° |
| 2026-05-04 18:25 | 48.05959 | 12.55828 | 13926 ft | 308 kts | 296° |
| 2026-05-04 18:26 | 48.07058 | 12.53080 | 13928 ft | 308 kts | 296° |
| 2026-05-04 18:26 | 48.08162 | 12.50327 | 13928 ft | 308 kts | 296° |
| 2026-05-04 18:26 | 48.09271 | 12.47569 | 13929 ft | 308 kts | 296° |
| 2026-05-04 18:26 | 48.10376 | 12.44828 | 13929 ft | 308 kts | 296° |
| 2026-05-04 18:27 | 48.11486 | 12.42082 | 13931 ft | 308 kts | 296° |
| 2026-05-04 18:27 | 48.12595 | 12.39350 | 13932 ft | 308 kts | 297° |
| 2026-05-04 18:27 | 48.13711 | 12.36606 | 13933 ft | 308 kts | 297° |
| 2026-05-04 18:27 | 48.14821 | 12.33863 | 13933 ft | 308 kts | 296° |
| 2026-05-04 18:28 | 48.15827 | 12.31056 | 13929 ft | 302 kts | 284° |
| 2026-05-04 18:28 | 48.16299 | 12.28016 | 13614 ft | 300 kts | 275° |
| 2026-05-04 18:28 | 48.16631 | 12.24930 | 13220 ft | 299 kts | 275° |
| 2026-05-04 18:28 | 48.16943 | 12.21846 | 12832 ft | 299 kts | 275° |
| 2026-05-04 18:29 | 48.17247 | 12.18765 | 12439 ft | 299 kts | 275° |
| 2026-05-04 18:29 | 48.17545 | 12.15690 | 12060 ft | 298 kts | 275° |
| 2026-05-04 18:29 | 48.18190 | 12.12738 | 11678 ft | 304 kts | 297° |
| 2026-05-04 18:29 | 48.19620 | 12.10415 | 11304 ft | 310 kts | 323° |
| 2026-05-04 18:30 | 48.23763 | 12.09248 | 10577 ft | 316 kts | 13° |
| 2026-05-04 18:30 | 48.24973 | 12.09926 | 10358 ft | 315 kts | 28° |
| 2026-05-04 18:30 | 48.26049 | 12.11049 | 10143 ft | 314 kts | 44° |
| 2026-05-04 18:31 | 48.27302 | 12.13665 | 9785 ft | 309 kts | 70° |
| 2026-05-04 18:31 | 48.27817 | 12.16756 | 9400 ft | 304 kts | 83° |
| 2026-05-04 18:31 | 48.28119 | 12.19888 | 9004 ft | 302 kts | 84° |
| 2026-05-04 18:31 | 48.28395 | 12.23006 | 8620 ft | 300 kts | 84° |
| 2026-05-04 18:32 | 48.28659 | 12.26093 | 8228 ft | 293 kts | 84° |
| 2026-05-04 18:32 | 48.28908 | 12.29066 | 7849 ft | 280 kts | 84° |
| 2026-05-04 18:32 | 48.29141 | 12.31906 | 7477 ft | 268 kts | 84° |
| 2026-05-04 18:32 | 48.29575 | 12.34581 | 7110 ft | 263 kts | 63° |
| 2026-05-04 18:33 | 48.30746 | 12.36633 | 6747 ft | 258 kts | 33° |
| 2026-05-04 18:33 | 48.32409 | 12.37537 | 6394 ft | 257 kts | 4° |
| 2026-05-04 18:33 | 48.34146 | 12.37085 | 6018 ft | 255 kts | 333° |
| 2026-05-04 18:33 | 48.35474 | 12.35404 | 5714 ft | 249 kts | 303° |
| 2026-05-04 18:34 | 48.36313 | 12.33159 | 5468 ft | 245 kts | 296° |
| 2026-05-04 18:34 | 48.37053 | 12.30862 | 5225 ft | 244 kts | 295° |
| 2026-05-04 18:34 | 48.37772 | 12.28568 | 5042 ft | 242 kts | 295° |
| 2026-05-04 18:34 | 48.38485 | 12.26271 | 4993 ft | 242 kts | 295° |
| 2026-05-04 18:35 | 48.39197 | 12.23966 | 4998 ft | 243 kts | 294° |
| 2026-05-04 18:35 | 48.39596 | 12.21519 | 5004 ft | 242 kts | 268° |
| 2026-05-04 18:35 | 48.39444 | 12.19004 | 5002 ft | 242 kts | 263° |
| 2026-05-04 18:35 | 48.39255 | 12.16524 | 4995 ft | 233 kts | 263° |
| 2026-05-04 18:36 | 48.39081 | 12.14175 | 4995 ft | 219 kts | 263° |
| 2026-05-04 18:36 | 48.38917 | 12.11936 | 5006 ft | 204 kts | 263° |
| 2026-05-04 18:36 | 48.38767 | 12.09892 | 4963 ft | 192 kts | 263° |
| 2026-05-04 18:36 | 48.38621 | 12.07921 | 4774 ft | 188 kts | 263° |
| 2026-05-04 18:37 | 48.38476 | 12.05967 | 4543 ft | 188 kts | 263° |
| 2026-05-04 18:37 | 48.38332 | 12.04016 | 4301 ft | 187 kts | 263° |
| 2026-05-04 18:37 | 48.38188 | 12.02074 | 4057 ft | 187 kts | 263° |
| 2026-05-04 18:37 | 48.38043 | 12.00133 | 3812 ft | 186 kts | 263° |
| 2026-05-04 18:38 | 48.37899 | 11.98198 | 3570 ft | 186 kts | 263° |
| 2026-05-04 18:38 | 48.37755 | 11.96271 | 3333 ft | 185 kts | 263° |
| 2026-05-04 18:38 | 48.37611 | 11.94351 | 3094 ft | 184 kts | 264° |
| 2026-05-04 18:38 | 48.37473 | 11.92520 | 2882 ft | 166 kts | 264° |
| 2026-05-04 18:39 | 48.37348 | 11.90860 | 2650 ft | 154 kts | 264° |
| 2026-05-04 18:39 | 48.37230 | 11.89289 | 2449 ft | 149 kts | 264° |
| 2026-05-04 18:39 | 48.37106 | 11.87758 | 2242 ft | 146 kts | 264° |
| 2026-05-04 18:39 | 48.36987 | 11.86253 | 2077 ft | 144 kts | 264° |
| 2026-05-04 18:40 | 48.36861 | 11.84731 | 1857 ft | 142 kts | 265° |
| 2026-05-04 18:40 | 48.36763 | 11.83255 | 1639 ft | 141 kts | 266° |
| 2026-05-04 18:40 | 48.36657 | 11.81778 | 1499 ft | 139 kts | 264° |
| 2026-05-04 18:40 | 48.36568 | 11.80569 | 1485 ft | 81 kts | 262° |
| 2026-05-04 18:41 | 48.36529 | 11.80044 | 1485 ft | 38 kts | 264° |
| 2026-05-04 18:41 | 48.36462 | 11.79735 | 1478 ft | 29 kts | 240° |
| 2026-05-04 18:41 | 48.36383 | 11.79564 | 1479 ft | 20 kts | 234° |
| 2026-05-04 18:41 | 48.36301 | 11.79400 | 1482 ft | 17 kts | 232° |
| 2026-05-04 18:42 | 48.36218 | 11.79276 | 1477 ft | 13 kts | 187° |
| 2026-05-04 18:42 | 48.36120 | 11.79312 | 1475 ft | 22 kts | 171° |
| 2026-05-04 18:42 | 48.35992 | 11.79335 | 1484 ft | 17 kts | 174° |
| 2026-05-04 18:42 | 48.35913 | 11.79348 | 1478 ft | 9 kts | 193° |
| 2026-05-04 18:43 | 48.35898 | 11.79310 | 1474 ft | 3 kts | 246° |
| 2026-05-04 18:43 | 48.35896 | 11.79285 | 1485 ft | 2 kts | 263° |
| 2026-05-04 18:43 | 48.35892 | 11.79234 | 1485 ft | 7 kts | 263° |
| 2026-05-04 18:43 | 48.35891 | 11.79213 | 1485 ft | 0 kts | 263° |